createdAt,value
2018-04-16T00:00:03.396Z,1
2018-04-16T00:05:03.022Z,1
2018-04-16T00:10:03.040Z,1
2018-04-16T00:15:02.680Z,1
2018-04-16T00:20:03.477Z,1
2018-04-16T00:25:03.045Z,1
2018-04-16T00:30:02.787Z,1
2018-04-16T00:35:03.417Z,1
2018-04-16T00:40:03.057Z,1
2018-04-16T00:45:02.699Z,1
2018-04-16T00:50:03.279Z,1
2018-04-16T00:55:02.923Z,1
2018-04-16T01:00:02.615Z,1
2018-04-16T01:05:03.269Z,1
2018-04-16T01:10:02.954Z,1
2018-04-16T01:15:02.592Z,1
2018-04-16T01:20:03.321Z,1
2018-04-16T01:25:03.002Z,1
2018-04-16T01:30:02.577Z,1
2018-04-16T01:35:03.211Z,1
2018-04-16T01:40:02.896Z,1
2018-04-16T01:45:02.547Z,1
2018-04-16T01:50:03.134Z,1
2018-04-16T01:55:02.946Z,1
2018-04-16T02:00:02.601Z,1
2018-04-16T02:05:03.258Z,1
2018-04-16T02:10:02.879Z,1
2018-04-16T02:15:02.598Z,1
2018-04-16T02:20:03.262Z,1
2018-04-16T02:25:02.914Z,1
2018-04-16T02:30:02.569Z,1
2018-04-16T02:35:03.160Z,1
2018-04-16T02:40:02.812Z,1
2018-04-16T02:45:02.522Z,1
2018-04-16T02:50:03.230Z,1
2018-04-16T02:55:02.941Z,1
2018-04-16T03:00:02.881Z,1
2018-04-16T03:05:03.466Z,1
2018-04-16T03:10:03.083Z,1
2018-04-16T03:15:02.736Z,1
2018-04-16T03:20:03.406Z,1
2018-04-16T03:25:02.937Z,1
2018-04-16T03:30:02.770Z,1
2018-04-16T03:35:03.381Z,1
2018-04-16T03:40:03.020Z,1
2018-04-16T03:45:02.694Z,1
2018-04-16T03:50:03.338Z,1
2018-04-16T03:55:02.878Z,1
2018-04-16T04:00:02.600Z,2
2018-04-16T04:05:03.286Z,2
2018-04-16T04:10:02.971Z,3
2018-04-16T04:15:02.538Z,6
2018-04-16T04:20:03.175Z,12
2018-04-16T04:25:02.910Z,20
2018-04-16T04:30:02.771Z,26
2018-04-16T04:35:03.388Z,37
2018-04-16T04:40:02.977Z,48
2018-04-16T04:45:02.620Z,60
2018-04-16T04:50:03.297Z,96
2018-04-16T04:55:02.862Z,254
2018-04-16T05:00:03.457Z,362
2018-04-16T05:05:03.057Z,490
2018-04-16T05:10:02.753Z,621
2018-04-16T05:15:03.290Z,754
2018-04-16T05:20:02.949Z,885
2018-04-16T05:25:02.511Z,962
2018-04-16T05:30:03.123Z,1000
2018-04-16T05:35:02.669Z,1000
2018-04-16T05:40:03.338Z,1000
2018-04-16T05:45:02.971Z,2000
2018-04-16T05:50:02.524Z,2000
2018-04-16T05:55:03.186Z,2000
2018-04-16T06:00:03.166Z,2000
2018-04-16T06:05:02.917Z,2000
2018-04-16T06:10:02.521Z,2000
2018-04-16T06:15:03.496Z,2000
2018-04-16T06:20:03.176Z,3000
2018-04-16T06:25:02.821Z,2000
2018-04-16T06:30:03.461Z,3000
2018-04-16T06:35:03.023Z,3000
2018-04-16T06:40:02.844Z,4000
2018-04-16T06:45:02.504Z,4000
2018-04-16T06:50:03.004Z,5000
2018-04-16T06:55:02.745Z,4000
2018-04-16T07:00:02.690Z,3000
2018-04-16T07:05:03.437Z,4000
2018-04-16T07:10:03.175Z,4000
2018-04-16T07:15:02.923Z,5000
2018-04-16T07:20:02.498Z,4000
2018-04-16T07:25:03.187Z,5000
2018-04-16T07:30:02.809Z,6000
2018-04-16T07:35:02.478Z,5000
2018-04-16T07:40:03.181Z,6000
2018-04-16T07:45:02.832Z,6000
2018-04-16T07:50:03.589Z,6000
2018-04-16T07:55:03.266Z,6000
2018-04-16T08:00:02.906Z,8000
2018-04-16T08:05:02.456Z,6000
2018-04-16T08:10:03.227Z,7000
2018-04-16T08:15:03.083Z,20000
2018-04-16T08:20:02.964Z,27000
2018-04-16T08:25:02.543Z,17000
2018-04-16T08:30:03.434Z,34000
2018-04-16T08:35:03.052Z,12000
2018-04-16T08:40:02.689Z,34000
2018-04-16T08:45:03.308Z,16000
2018-04-16T08:50:03.006Z,9000
2018-04-16T08:55:02.537Z,7000
2018-04-16T09:00:03.129Z,30000
2018-04-16T09:05:02.766Z,30000
2018-04-16T09:10:03.441Z,31000
2018-04-16T09:15:03.059Z,11000
2018-04-16T09:20:02.708Z,8000
2018-04-16T09:25:02.494Z,10000
2018-04-16T09:30:03.148Z,40000
2018-04-16T09:35:02.822Z,48000
2018-04-16T09:40:02.533Z,25000
2018-04-16T09:45:03.262Z,28000
2018-04-16T09:50:02.924Z,8000
2018-04-16T09:55:02.539Z,40000
2018-04-16T10:00:03.256Z,15000
2018-04-16T10:05:02.827Z,10000
2018-04-16T10:10:02.607Z,31000
2018-04-16T10:15:03.208Z,31000
2018-04-16T10:20:02.867Z,44000
2018-04-16T10:25:02.538Z,48000
2018-04-16T10:30:03.150Z,48000
2018-04-16T10:35:02.747Z,10000
2018-04-16T10:40:03.445Z,43000
2018-04-16T10:45:03.047Z,12000
2018-04-16T10:50:02.852Z,35000
2018-04-16T10:55:02.498Z,21000
2018-04-16T11:00:03.170Z,32000
2018-04-16T11:05:02.781Z,34000
2018-04-16T11:10:02.488Z,42000
2018-04-16T11:15:03.083Z,42000
2018-04-16T11:20:02.691Z,44000
2018-04-16T11:25:03.299Z,47000
2018-04-16T11:30:02.885Z,51000
2018-04-16T11:35:02.526Z,12000
2018-04-16T11:40:03.261Z,44000
2018-04-16T11:45:02.915Z,48000
2018-04-16T11:50:02.692Z,47000
2018-04-16T11:55:03.316Z,24000
2018-04-16T12:00:02.938Z,46000
2018-04-16T12:05:02.543Z,26000
2018-04-16T12:10:03.290Z,8000
2018-04-16T12:15:02.925Z,53000
2018-04-16T12:20:02.687Z,47000
2018-04-16T12:25:03.283Z,14000
2018-04-16T12:30:02.929Z,42000
2018-04-16T12:35:02.746Z,41000
2018-04-16T12:40:03.486Z,39000
2018-04-16T12:45:03.051Z,38000
2018-04-16T12:50:02.735Z,38000
2018-04-16T12:55:03.288Z,36000
2018-04-16T13:00:02.931Z,35000
2018-04-16T13:05:02.577Z,30000
2018-04-16T13:10:03.328Z,8000
2018-04-16T13:15:02.899Z,22000
2018-04-16T13:20:02.536Z,26000
2018-04-16T13:25:03.321Z,14000
2018-04-16T13:30:02.975Z,9000
2018-04-16T13:35:02.597Z,8000
2018-04-16T13:40:03.293Z,14000
2018-04-16T13:45:02.886Z,20000
2018-04-16T13:50:02.649Z,20000
2018-04-16T13:55:03.263Z,21000
2018-04-16T14:00:02.839Z,24000
2018-04-16T14:05:02.660Z,12000
2018-04-16T14:10:03.407Z,8000
2018-04-16T14:15:02.935Z,11000
2018-04-16T14:20:02.587Z,8000
2018-04-16T14:25:03.178Z,21000
2018-04-16T14:30:02.900Z,26000
2018-04-16T14:35:02.450Z,31000
2018-04-16T14:40:03.080Z,27000
2018-04-16T14:45:02.649Z,26000
2018-04-16T14:50:03.255Z,6000
2018-04-16T14:55:02.844Z,25000
2018-04-16T15:00:03.423Z,25000
2018-04-16T15:05:02.974Z,22000
2018-04-16T15:10:02.705Z,20000
2018-04-16T15:15:03.357Z,4000
2018-04-16T15:20:02.915Z,13000
2018-04-16T15:25:02.540Z,17000
2018-04-16T15:30:04.986Z,18000
2018-04-16T15:35:02.584Z,17000
2018-04-16T15:40:03.258Z,16000
2018-04-16T15:45:02.786Z,16000
2018-04-16T15:50:03.503Z,14000
2018-04-16T15:55:03.099Z,16000
2018-04-16T16:00:02.712Z,15000
2018-04-16T16:05:03.390Z,3000
2018-04-16T16:10:03.048Z,4000
2018-04-16T16:15:02.822Z,15000
2018-04-16T16:20:02.759Z,15000
2018-04-16T16:25:03.451Z,16000
2018-04-16T16:30:03.029Z,15000
2018-04-16T16:35:02.768Z,13000
2018-04-16T16:40:03.418Z,12000
2018-04-16T16:45:02.978Z,11000
2018-04-16T16:50:02.648Z,10000
2018-04-16T16:55:03.288Z,10000
2018-04-16T17:00:02.837Z,9000
2018-04-16T17:05:02.545Z,9000
2018-04-16T17:10:03.178Z,9000
2018-04-16T17:15:02.768Z,7000
2018-04-16T17:20:03.539Z,7000
2018-04-16T17:25:02.500Z,6000
2018-04-16T17:30:03.131Z,5000
2018-04-16T17:35:02.759Z,5000
2018-04-16T17:40:03.433Z,4000
2018-04-16T17:45:03.221Z,3000
2018-04-16T17:50:02.803Z,3000
2018-04-16T17:55:03.508Z,1000
2018-04-16T18:00:03.376Z,1000
2018-04-16T18:05:02.986Z,935
2018-04-16T18:10:02.687Z,798
2018-04-16T18:15:03.355Z,669
2018-04-16T18:20:03.045Z,538
2018-04-16T18:25:02.632Z,431
2018-04-16T18:30:03.286Z,174
2018-04-16T18:35:02.914Z,91
2018-04-16T18:40:02.603Z,62
2018-04-16T18:45:03.350Z,47
2018-04-16T18:50:03.011Z,26
2018-04-16T18:55:02.635Z,13
2018-04-16T19:00:03.205Z,5
2018-04-16T19:05:02.783Z,4
2018-04-16T19:10:02.528Z,2
2018-04-16T19:15:03.272Z,2
2018-04-16T19:20:02.932Z,1
2018-04-16T19:25:02.630Z,1
2018-04-16T19:30:03.457Z,1
2018-04-16T19:35:03.135Z,1
2018-04-16T19:40:02.804Z,1
2018-04-16T19:45:03.384Z,1
2018-04-16T19:50:02.973Z,1
2018-04-16T19:55:02.519Z,1
2018-04-16T20:00:03.372Z,1
2018-04-16T20:05:03.066Z,1
2018-04-16T20:10:02.879Z,1
2018-04-16T20:15:02.585Z,1
2018-04-16T20:20:03.282Z,1
2018-04-16T20:25:02.873Z,1
2018-04-16T20:30:02.493Z,1
2018-04-16T20:35:03.180Z,1
2018-04-16T20:40:02.832Z,1
2018-04-16T20:45:03.436Z,1
2018-04-16T20:50:03.059Z,1
2018-04-16T20:55:02.652Z,1
2018-04-16T21:00:03.373Z,1
2018-04-16T21:05:02.988Z,1
2018-04-16T21:10:02.771Z,1
2018-04-16T21:15:03.363Z,1
2018-04-16T21:20:03.038Z,1
2018-04-16T21:25:02.710Z,1
2018-04-16T21:30:03.697Z,1
2018-04-16T21:35:03.367Z,1
2018-04-16T21:40:03.061Z,1
2018-04-16T21:45:02.620Z,1
2018-04-16T21:50:03.212Z,1
2018-04-16T21:55:02.784Z,1
2018-04-16T22:00:03.416Z,1
2018-04-16T22:05:03.020Z,1
2018-04-16T22:10:02.735Z,1
2018-04-16T22:15:03.346Z,1
2018-04-16T22:20:02.981Z,1
2018-04-16T22:25:02.594Z,1
2018-04-16T22:30:03.226Z,1
2018-04-16T22:35:02.815Z,1
2018-04-16T22:40:02.534Z,1
2018-04-16T22:45:03.274Z,1
2018-04-16T22:50:02.851Z,1
2018-04-16T22:55:03.452Z,1
2018-04-16T23:00:02.955Z,1
2018-04-16T23:05:03.283Z,1
2018-04-16T23:10:03.035Z,1
2018-04-16T23:15:02.569Z,1
2018-04-16T23:20:03.206Z,1
2018-04-16T23:25:02.770Z,1
2018-04-16T23:30:03.366Z,1
2018-04-16T23:35:02.983Z,1
2018-04-16T23:40:02.618Z,1
2018-04-16T23:45:03.236Z,1
2018-04-16T23:50:02.803Z,1
2018-04-16T23:55:03.466Z,1
